sensor_id;sensor_type;location;lat;lon;timestamp;pressure;altitude;pressure_sealevel;temperature;humidity
7940;BME280;4015;48.888;9.226;2023-07-20T00:02:09;160297.09;;;20.10;62.39
7940;BME280;4015;48.888;9.226;2023-07-20T00:04:34;160302.28;;;20.12;61.37
7940;BME280;4015;48.888;9.226;2023-07-20T00:07:00;160276.56;;;20.02;62.14
7940;BME280;4015;48.888;9.226;2023-07-20T00:09:28;160263.72;;;19.97;61.04
7940;BME280;4015;48.888;9.226;2023-07-20T00:11:53;160286.88;;;20.06;61.26
7940;BME280;4015;48.888;9.226;2023-07-20T00:14:19;160266.28;;;19.98;59.98
7940;BME280;4015;48.888;9.226;2023-07-20T00:16:45;160272.72;;;20.01;59.66
7940;BME280;4015;48.888;9.226;2023-07-20T00:19:14;160288.16;;;20.07;59.57
7940;BME280;4015;48.888;9.226;2023-07-20T00:21:39;160271.44;;;20.00;59.00
7940;BME280;4015;48.888;9.226;2023-07-20T00:24:06;160253.47;;;19.93;59.95
7940;BME280;4015;48.888;9.226;2023-07-20T00:26:31;160241.91;;;19.88;60.38
7940;BME280;4015;48.888;9.226;2023-07-20T00:28:57;160245.72;;;19.90;59.53
7940;BME280;4015;48.888;9.226;2023-07-20T00:31:22;160196.94;;;19.71;60.61
7940;BME280;4015;48.888;9.226;2023-07-20T00:33:47;160151.94;;;19.53;61.73
7940;BME280;4015;48.888;9.226;2023-07-20T00:36:14;160135.25;;;19.46;61.09
7940;BME280;4015;48.888;9.226;2023-07-20T00:38:39;160128.84;;;19.44;62.19
7940;BME280;4015;48.888;9.226;2023-07-20T00:41:05;160089.00;;;19.28;62.01
7940;BME280;4015;48.888;9.226;2023-07-20T00:43:31;160077.44;;;19.23;62.56
7940;BME280;4015;48.888;9.226;2023-07-20T00:45:56;160054.34;;;19.14;62.47
7940;BME280;4015;48.888;9.226;2023-07-20T00:48:22;160033.81;;;19.06;62.77
7940;BME280;4015;48.888;9.226;2023-07-20T00:50:47;160056.91;;;19.15;62.23
7940;BME280;4015;48.888;9.226;2023-07-20T00:53:13;160018.41;;;19.00;63.28
7940;BME280;4015;48.888;9.226;2023-07-20T00:55:39;160038.94;;;19.08;62.52
7940;BME280;4015;48.888;9.226;2023-07-20T00:58:04;159996.56;;;18.91;62.59
7940;BME280;4015;48.888;9.226;2023-07-20T01:00:30;159999.16;;;18.92;62.56
7940;BME280;4015;48.888;9.226;2023-07-20T01:02:56;159987.59;;;18.88;62.24
7940;BME280;4015;48.888;9.226;2023-07-20T01:05:26;159987.59;;;18.88;62.06
7940;BME280;4015;48.888;9.226;2023-07-20T01:08:09;159981.16;;;18.85;62.03
7940;BME280;4015;48.888;9.226;2023-07-20T01:10:44;159987.59;;;18.88;62.57
7940;BME280;4015;48.888;9.226;2023-07-20T01:13:13;160000.44;;;18.93;62.06
7940;BME280;4015;48.888;9.226;2023-07-20T01:15:39;159996.56;;;18.91;61.62
7940;BME280;4015;48.888;9.226;2023-07-20T01:18:04;159992.72;;;18.90;62.28
7940;BME280;4015;48.888;9.226;2023-07-20T01:20:31;159988.88;;;18.88;61.96
7940;BME280;4015;48.888;9.226;2023-07-20T01:26:07;159954.22;;;18.74;62.18
7940;BME280;4015;48.888;9.226;2023-07-20T01:28:57;159983.75;;;18.86;62.00
7940;BME280;4015;48.888;9.226;2023-07-20T01:31:33;159954.22;;;18.74;62.81
7940;BME280;4015;48.888;9.226;2023-07-20T01:34:01;159897.69;;;18.52;63.42
7940;BME280;4015;48.888;9.226;2023-07-20T01:36:30;159916.91;;;18.59;63.74
7940;BME280;4015;48.888;9.226;2023-07-20T01:38:58;159907.97;;;18.56;63.66
7940;BME280;4015;48.888;9.226;2023-07-20T01:41:24;159879.72;;;18.45;63.54
7940;BME280;4015;48.888;9.226;2023-07-20T01:43:49;159870.72;;;18.41;63.27
7940;BME280;4015;48.888;9.226;2023-07-20T01:46:15;159877.16;;;18.44;64.10
7940;BME280;4015;48.888;9.226;2023-07-20T01:48:40;159856.63;;;18.36;64.29
7940;BME280;4015;48.888;9.226;2023-07-20T01:51:05;159851.47;;;18.33;63.65
7940;BME280;4015;48.888;9.226;2023-07-20T01:53:31;159806.53;;;18.16;64.79
7940;BME280;4015;48.888;9.226;2023-07-20T01:55:57;159810.44;;;18.17;64.92
7940;BME280;4015;48.888;9.226;2023-07-20T01:58:22;159782.19;;;18.06;65.29
7940;BME280;4015;48.888;9.226;2023-07-20T02:00:48;159805.28;;;18.15;64.92
7940;BME280;4015;48.888;9.226;2023-07-20T02:03:13;159797.59;;;18.12;65.35
7940;BME280;4015;48.888;9.226;2023-07-20T02:05:39;159771.91;;;18.02;65.67
7940;BME280;4015;48.888;9.226;2023-07-20T02:08:04;159782.19;;;18.06;65.50
7940;BME280;4015;48.888;9.226;2023-07-20T02:10:30;159778.34;;;18.04;64.99
7940;BME280;4015;48.888;9.226;2023-07-20T02:12:55;159770.63;;;18.01;65.02
7940;BME280;4015;48.888;9.226;2023-07-20T02:15:20;159780.91;;;18.05;65.35
7940;BME280;4015;48.888;9.226;2023-07-20T02:17:46;159769.34;;;18.01;65.66
7940;BME280;4015;48.888;9.226;2023-07-20T02:20:12;159753.97;;;17.95;65.73
7940;BME280;4015;48.888;9.226;2023-07-20T02:22:38;159753.97;;;17.95;66.10
7940;BME280;4015;48.888;9.226;2023-07-20T02:25:05;159753.97;;;17.95;65.62
7940;BME280;4015;48.888;9.226;2023-07-20T02:27:30;159736.00;;;17.88;66.40
7940;BME280;4015;48.888;9.226;2023-07-20T02:29:56;159720.59;;;17.82;66.55
7940;BME280;4015;48.888;9.226;2023-07-20T02:32:21;159688.47;;;17.69;67.83
7940;BME280;4015;48.888;9.226;2023-07-20T02:34:47;159646.13;;;17.52;68.60
7940;BME280;4015;48.888;9.226;2023-07-20T02:37:12;159662.81;;;17.59;68.59
7940;BME280;4015;48.888;9.226;2023-07-20T02:39:38;159623.06;;;17.43;68.68
7940;BME280;4015;48.888;9.226;2023-07-20T02:42:04;159623.06;;;17.43;69.00
7940;BME280;4015;48.888;9.226;2023-07-20T02:44:29;159564.06;;;17.19;69.50
7940;BME280;4015;48.888;9.226;2023-07-20T02:46:55;159539.72;;;17.10;70.37
7940;BME280;4015;48.888;9.226;2023-07-20T02:49:20;159517.88;;;17.01;70.53
7940;BME280;4015;48.888;9.226;2023-07-20T02:51:46;159503.78;;;16.95;70.18
7940;BME280;4015;48.888;9.226;2023-07-20T02:54:11;159485.81;;;16.88;71.22
7940;BME280;4015;48.888;9.226;2023-07-20T02:56:37;159482.00;;;16.87;71.34
7940;BME280;4015;48.888;9.226;2023-07-20T02:59:03;159449.94;;;16.74;71.76
7940;BME280;4015;48.888;9.226;2023-07-20T03:01:29;159425.50;;;16.64;72.92
7940;BME280;4015;48.888;9.226;2023-07-20T03:03:55;159449.94;;;16.74;72.76
7940;BME280;4015;48.888;9.226;2023-07-20T03:06:21;159456.31;;;16.77;71.67
7940;BME280;4015;48.888;9.226;2023-07-20T03:08:47;159473.00;;;16.83;71.34
7940;BME280;4015;48.888;9.226;2023-07-20T03:11:16;159455.03;;;16.76;71.33
7940;BME280;4015;48.888;9.226;2023-07-20T03:13:43;159412.69;;;16.59;72.83
7940;BME280;4015;48.888;9.226;2023-07-20T03:16:09;159447.38;;;16.73;71.80
7940;BME280;4015;48.888;9.226;2023-07-20T03:18:37;159437.06;;;16.69;71.86
7940;BME280;4015;48.888;9.226;2023-07-20T03:21:03;159438.34;;;16.69;71.98
7940;BME280;4015;48.888;9.226;2023-07-20T03:23:28;159437.06;;;16.69;72.48
7940;BME280;4015;48.888;9.226;2023-07-20T03:25:53;159439.66;;;16.70;72.75
7940;BME280;4015;48.888;9.226;2023-07-20T03:28:20;159424.22;;;16.64;72.76
7940;BME280;4015;48.888;9.226;2023-07-20T03:30:45;159435.78;;;16.68;71.92
7940;BME280;4015;48.888;9.226;2023-07-20T03:33:11;159448.66;;;16.74;72.36
7940;BME280;4015;48.888;9.226;2023-07-20T03:35:37;159488.38;;;16.89;71.10
7940;BME280;4015;48.888;9.226;2023-07-20T03:38:02;159464.03;;;16.80;72.17
7940;BME280;4015;48.888;9.226;2023-07-20T03:40:28;159462.75;;;16.79;71.79
7940;BME280;4015;48.888;9.226;2023-07-20T03:42:53;159476.88;;;16.85;71.87
7940;BME280;4015;48.888;9.226;2023-07-20T03:45:18;159496.09;;;16.92;71.08
7940;BME280;4015;48.888;9.226;2023-07-20T03:47:44;159482.00;;;16.87;70.90
7940;BME280;4015;48.888;9.226;2023-07-20T03:50:10;159470.44;;;16.82;71.77
7940;BME280;4015;48.888;9.226;2023-07-20T03:52:35;159478.16;;;16.85;71.87
7940;BME280;4015;48.888;9.226;2023-07-20T03:55:01;159479.44;;;16.86;71.50
7940;BME280;4015;48.888;9.226;2023-07-20T03:57:26;159474.28;;;16.84;72.25
7940;BME280;4015;48.888;9.226;2023-07-20T03:59:51;159487.09;;;16.89;72.00
7940;BME280;4015;48.888;9.226;2023-07-20T04:02:17;159524.31;;;17.04;71.47
7940;BME280;4015;48.888;9.226;2023-07-20T04:04:42;159519.16;;;17.02;71.91
7940;BME280;4015;48.888;9.226;2023-07-20T04:07:08;159501.22;;;16.94;72.13
7940;BME280;4015;48.888;9.226;2023-07-20T04:09:33;159507.59;;;16.97;72.11
7940;BME280;4015;48.888;9.226;2023-07-20T04:11:59;159469.16;;;16.82;72.93
7940;BME280;4015;48.888;9.226;2023-07-20T04:14:25;159499.94;;;16.94;72.96
7940;BME280;4015;48.888;9.226;2023-07-20T04:16:50;159526.88;;;17.05;72.56
7940;BME280;4015;48.888;9.226;2023-07-20T04:19:17;159548.66;;;17.13;71.89
7940;BME280;4015;48.888;9.226;2023-07-20T04:21:43;159553.78;;;17.15;72.33
7940;BME280;4015;48.888;9.226;2023-07-20T04:24:08;159582.00;;;17.26;71.34
7940;BME280;4015;48.888;9.226;2023-07-20T04:26:34;159612.78;;;17.39;71.20
7940;BME280;4015;48.888;9.226;2023-07-20T04:28:59;159647.41;;;17.52;70.93
7940;BME280;4015;48.888;9.226;2023-07-20T04:31:24;159675.66;;;17.64;70.87
7940;BME280;4015;48.888;9.226;2023-07-20T04:33:50;159700.09;;;17.73;70.49
7940;BME280;4015;48.888;9.226;2023-07-20T04:36:15;159718.03;;;17.81;71.20
7940;BME280;4015;48.888;9.226;2023-07-20T04:38:47;159710.31;;;17.77;71.31
7940;BME280;4015;48.888;9.226;2023-07-20T04:41:12;159729.59;;;17.85;69.44
7940;BME280;4015;48.888;9.226;2023-07-20T04:43:41;159741.13;;;17.90;69.22
7940;BME280;4015;48.888;9.226;2023-07-20T04:46:07;159756.50;;;17.96;70.44
7940;BME280;4015;48.888;9.226;2023-07-20T04:48:33;159766.81;;;18.00;69.72
7940;BME280;4015;48.888;9.226;2023-07-20T04:50:58;159773.19;;;18.02;70.01
7940;BME280;4015;48.888;9.226;2023-07-20T04:53:23;159809.16;;;18.17;70.30
7940;BME280;4015;48.888;9.226;2023-07-20T04:55:49;159807.81;;;18.16;69.76
7940;BME280;4015;48.888;9.226;2023-07-20T04:58:15;159809.16;;;18.17;69.27
7940;BME280;4015;48.888;9.226;2023-07-20T05:00:40;159828.41;;;18.24;69.14
7940;BME280;4015;48.888;9.226;2023-07-20T05:03:06;159846.34;;;18.31;68.31
7940;BME280;4015;48.888;9.226;2023-07-20T05:05:31;159875.88;;;18.43;68.12
7940;BME280;4015;48.888;9.226;2023-07-20T05:07:57;159927.22;;;18.64;67.71
7940;BME280;4015;48.888;9.226;2023-07-20T05:10:24;159956.78;;;18.75;67.50
7940;BME280;4015;48.888;9.226;2023-07-20T05:12:49;160020.97;;;19.01;66.22
7940;BME280;4015;48.888;9.226;2023-07-20T05:15:14;160049.22;;;19.12;66.37
7940;BME280;4015;48.888;9.226;2023-07-20T05:17:40;160082.59;;;19.25;64.78
7940;BME280;4015;48.888;9.226;2023-07-20T05:20:06;160076.16;;;19.23;65.47
7940;BME280;4015;48.888;9.226;2023-07-20T05:22:31;160100.56;;;19.32;65.45
7940;BME280;4015;48.888;9.226;2023-07-20T05:24:57;160175.13;;;19.62;64.74
7940;BME280;4015;48.888;9.226;2023-07-20T05:27:22;160154.50;;;19.54;65.05
7940;BME280;4015;48.888;9.226;2023-07-20T05:29:48;160177.69;;;19.63;64.78
7940;BME280;4015;48.888;9.226;2023-07-20T05:32:13;160187.91;;;19.67;65.31
7940;BME280;4015;48.888;9.226;2023-07-20T05:34:39;160203.34;;;19.73;64.52
7940;BME280;4015;48.888;9.226;2023-07-20T05:37:05;160178.97;;;19.63;65.21
7940;BME280;4015;48.888;9.226;2023-07-20T05:39:32;160190.53;;;19.68;64.75
7940;BME280;4015;48.888;9.226;2023-07-20T05:41:58;160208.50;;;19.75;64.51
7940;BME280;4015;48.888;9.226;2023-07-20T05:44:23;160263.72;;;19.97;63.96
7940;BME280;4015;48.888;9.226;2023-07-20T05:46:48;160294.53;;;20.09;63.87
7940;BME280;4015;48.888;9.226;2023-07-20T05:49:14;160303.56;;;20.13;63.31
7940;BME280;4015;48.888;9.226;2023-07-20T05:51:39;160365.22;;;20.37;63.28
7940;BME280;4015;48.888;9.226;2023-07-20T05:54:05;160423.06;;;20.60;62.26
7940;BME280;4015;48.888;9.226;2023-07-20T05:56:30;160466.75;;;20.78;61.67
7940;BME280;4015;48.888;9.226;2023-07-20T05:58:56;160486.03;;;20.85;61.87
7940;BME280;4015;48.888;9.226;2023-07-20T06:01:21;160511.75;;;20.95;61.21
7940;BME280;4015;48.888;9.226;2023-07-20T06:03:47;160520.72;;;20.99;60.66
7940;BME280;4015;48.888;9.226;2023-07-20T06:06:12;160524.63;;;21.00;61.10
7940;BME280;4015;48.888;9.226;2023-07-20T06:08:38;160588.88;;;21.26;60.79
7940;BME280;4015;48.888;9.226;2023-07-20T06:11:03;160595.34;;;21.28;60.12
7940;BME280;4015;48.888;9.226;2023-07-20T06:13:29;160615.88;;;21.37;59.85
7940;BME280;4015;48.888;9.226;2023-07-20T06:15:54;160687.91;;;21.65;59.99
7940;BME280;4015;48.888;9.226;2023-07-20T06:18:22;160717.47;;;21.77;58.75
7940;BME280;4015;48.888;9.226;2023-07-20T06:20:51;160663.44;;;21.55;59.32
7940;BME280;4015;48.888;9.226;2023-07-20T06:23:20;160709.75;;;21.74;59.51
7940;BME280;4015;48.888;9.226;2023-07-20T06:25:46;160669.91;;;21.58;59.49
7940;BME280;4015;48.888;9.226;2023-07-20T06:28:13;160743.16;;;21.87;60.02
7940;BME280;4015;48.888;9.226;2023-07-20T06:30:38;160693.03;;;21.67;58.87
7940;BME280;4015;48.888;9.226;2023-07-20T06:33:04;160681.50;;;21.63;58.84
7940;BME280;4015;48.888;9.226;2023-07-20T06:35:29;160659.59;;;21.54;58.14
7940;BME280;4015;48.888;9.226;2023-07-20T06:37:54;160743.16;;;21.87;57.93
7940;BME280;4015;48.888;9.226;2023-07-20T06:40:20;160808.84;;;22.13;59.02
7940;BME280;4015;48.888;9.226;2023-07-20T06:42:46;160878.28;;;22.41;58.20
7940;BME280;4015;48.888;9.226;2023-07-20T06:45:11;160870.53;;;22.38;57.10
7940;BME280;4015;48.888;9.226;2023-07-20T06:47:40;160750.91;;;21.90;58.23
7940;BME280;4015;48.888;9.226;2023-07-20T06:50:06;160786.91;;;22.04;58.75
7940;BME280;4015;48.888;9.226;2023-07-20T06:52:32;160876.97;;;22.40;58.32
7940;BME280;4015;48.888;9.226;2023-07-20T06:54:57;160938.72;;;22.65;58.66
7940;BME280;4015;48.888;9.226;2023-07-20T06:57:23;160979.88;;;22.81;57.24
7940;BME280;4015;48.888;9.226;2023-07-20T06:59:48;160982.47;;;22.82;57.60
7940;BME280;4015;48.888;9.226;2023-07-20T07:02:13;161045.56;;;23.07;56.69
7940;BME280;4015;48.888;9.226;2023-07-20T07:04:39;161109.91;;;23.32;56.50
7940;BME280;4015;48.888;9.226;2023-07-20T07:07:04;161149.75;;;23.48;55.46
7940;BME280;4015;48.888;9.226;2023-07-20T07:09:30;161205.19;;;23.70;54.45
7940;BME280;4015;48.888;9.226;2023-07-20T07:11:55;161330.00;;;24.19;53.08
7940;BME280;4015;48.888;9.226;2023-07-20T07:14:20;161528.34;;;24.98;52.51
7940;BME280;4015;48.888;9.226;2023-07-20T07:16:47;161628.84;;;25.38;51.30
7940;BME280;4015;48.888;9.226;2023-07-20T07:19:13;161842.78;;;26.22;50.08
7940;BME280;4015;48.888;9.226;2023-07-20T07:21:39;161965.22;;;26.71;48.46
7940;BME280;4015;48.888;9.226;2023-07-20T07:24:05;162015.53;;;26.91;48.33
7940;BME280;4015;48.888;9.226;2023-07-20T07:26:32;162064.56;;;27.10;47.70
7940;BME280;4015;48.888;9.226;2023-07-20T07:28:57;162113.56;;;27.29;46.73
7940;BME280;4015;48.888;9.226;2023-07-20T07:31:24;161701.00;;;25.66;49.44
7940;BME280;4015;48.888;9.226;2023-07-20T07:33:50;161625.00;;;25.36;51.67
7940;BME280;4015;48.888;9.226;2023-07-20T07:36:15;161931.72;;;26.57;48.74
7940;BME280;4015;48.888;9.226;2023-07-20T07:38:40;162223.22;;;27.73;47.82
7940;BME280;4015;48.888;9.226;2023-07-20T07:41:06;162292.81;;;28.00;46.06
7940;BME280;4015;48.888;9.226;2023-07-20T07:43:31;162350.88;;;28.23;44.94
7940;BME280;4015;48.888;9.226;2023-07-20T07:45:56;162510.88;;;28.86;44.92
7940;BME280;4015;48.888;9.226;2023-07-20T07:48:22;162162.53;;;27.49;45.29
7940;BME280;4015;48.888;9.226;2023-07-20T07:50:47;162028.38;;;26.96;46.67
7940;BME280;4015;48.888;9.226;2023-07-20T07:53:13;161842.78;;;26.22;47.83
7940;BME280;4015;48.888;9.226;2023-07-20T07:55:38;161895.66;;;26.43;48.29
7940;BME280;4015;48.888;9.226;2023-07-20T07:58:03;161829.88;;;26.17;48.93
7940;BME280;4015;48.888;9.226;2023-07-20T08:00:29;161735.84;;;25.80;50.02
7940;BME280;4015;48.888;9.226;2023-07-20T08:02:54;161644.31;;;25.44;49.35
7940;BME280;4015;48.888;9.226;2023-07-20T08:05:19;161509.03;;;24.90;51.14
7940;BME280;4015;48.888;9.226;2023-07-20T08:07:45;161232.16;;;23.81;53.94
7940;BME280;4015;48.888;9.226;2023-07-20T08:10:11;161028.81;;;23.00;54.93
7940;BME280;4015;48.888;9.226;2023-07-20T08:12:36;161211.59;;;23.73;53.20
7940;BME280;4015;48.888;9.226;2023-07-20T08:15:02;161974.28;;;26.74;48.63
7940;BME280;4015;48.888;9.226;2023-07-20T08:17:27;162575.44;;;29.12;44.45
7940;BME280;4015;48.888;9.226;2023-07-20T08:19:52;163032.50;;;30.92;40.74
7940;BME280;4015;48.888;9.226;2023-07-20T08:22:18;163492.53;;;32.73;37.95
7940;BME280;4015;48.888;9.226;2023-07-20T08:24:43;163562.38;;;33.01;38.25
7940;BME280;4015;48.888;9.226;2023-07-20T08:27:09;163751.09;;;33.75;36.25
7940;BME280;4015;48.888;9.226;2023-07-20T08:29:35;163651.53;;;33.36;35.60
7940;BME280;4015;48.888;9.226;2023-07-20T08:32:02;163219.81;;;31.66;38.29
7940;BME280;4015;48.888;9.226;2023-07-20T08:34:27;162277.34;;;27.94;43.08
7940;BME280;4015;48.888;9.226;2023-07-20T08:36:52;162337.97;;;28.18;43.40
7940;BME280;4015;48.888;9.226;2023-07-20T08:39:18;162074.84;;;27.14;44.46
7940;BME280;4015;48.888;9.226;2023-07-20T08:41:43;162224.50;;;27.73;45.42
7940;BME280;4015;48.888;9.226;2023-07-20T08:44:10;162920.13;;;30.48;42.00
7940;BME280;4015;48.888;9.226;2023-07-20T08:46:38;163293.53;;;31.95;38.76
7940;BME280;4015;48.888;9.226;2023-07-20T08:49:05;163005.41;;;30.81;37.74
7940;BME280;4015;48.888;9.226;2023-07-20T08:51:31;162357.31;;;28.26;41.07
7940;BME280;4015;48.888;9.226;2023-07-20T08:53:58;162571.53;;;29.10;40.33
7940;BME280;4015;48.888;9.226;2023-07-20T08:56:24;162814.25;;;30.06;39.58
7940;BME280;4015;48.888;9.226;2023-07-20T08:58:52;162678.69;;;29.52;40.54
7940;BME280;4015;48.888;9.226;2023-07-20T09:01:19;162668.34;;;29.48;41.48
7940;BME280;4015;48.888;9.226;2023-07-20T09:03:45;162800.03;;;30.00;40.74
7940;BME280;4015;48.888;9.226;2023-07-20T09:06:12;163005.41;;;30.81;38.17
7940;BME280;4015;48.888;9.226;2023-07-20T09:08:38;163316.75;;;32.04;36.49
7940;BME280;4015;48.888;9.226;2023-07-20T09:11:04;163532.66;;;32.89;35.09
7940;BME280;4015;48.888;9.226;2023-07-20T09:13:29;163787.34;;;33.90;34.37
7940;BME280;4015;48.888;9.226;2023-07-20T09:15:54;163817.13;;;34.01;33.79
7940;BME280;4015;48.888;9.226;2023-07-20T09:18:24;163561.09;;;33.00;35.82
7940;BME280;4015;48.888;9.226;2023-07-20T09:20:50;163301.25;;;31.98;37.64
7940;BME280;4015;48.888;9.226;2023-07-20T09:23:15;162554.75;;;29.03;40.19
7940;BME280;4015;48.888;9.226;2023-07-20T09:25:41;162150.94;;;27.44;43.95
7940;BME280;4015;48.888;9.226;2023-07-20T09:28:07;162499.25;;;28.82;41.76
7940;BME280;4015;48.888;9.226;2023-07-20T09:30:32;162841.38;;;30.17;40.21
7940;BME280;4015;48.888;9.226;2023-07-20T09:32:58;162437.34;;;28.57;41.21
7940;BME280;4015;48.888;9.226;2023-07-20T09:35:24;162602.50;;;29.22;41.07
7940;BME280;4015;48.888;9.226;2023-07-20T09:37:58;162995.06;;;30.77;38.22
7940;BME280;4015;48.888;9.226;2023-07-20T09:40:25;163134.59;;;31.32;38.53
7940;BME280;4015;48.888;9.226;2023-07-20T09:42:52;163433.13;;;32.50;37.53
7940;BME280;4015;48.888;9.226;2023-07-20T09:45:19;163642.50;;;33.33;34.78
7940;BME280;4015;48.888;9.226;2023-07-20T09:47:44;163495.09;;;32.74;34.43
7940;BME280;4015;48.888;9.226;2023-07-20T09:50:11;163271.53;;;31.86;35.86
7940;BME280;4015;48.888;9.226;2023-07-20T09:52:40;163199.16;;;31.58;34.57
7940;BME280;4015;48.888;9.226;2023-07-20T09:55:07;163329.69;;;32.09;33.72
7940;BME280;4015;48.888;9.226;2023-07-20T09:57:34;163482.22;;;32.69;34.71
7940;BME280;4015;48.888;9.226;2023-07-20T10:00:02;163486.09;;;32.71;34.20
7940;BME280;4015;48.888;9.226;2023-07-20T10:02:33;163493.81;;;32.74;33.22
7940;BME280;4015;48.888;9.226;2023-07-20T10:05:02;163580.47;;;33.08;32.82
7940;BME280;4015;48.888;9.226;2023-07-20T10:07:29;163374.91;;;32.27;33.79
7940;BME280;4015;48.888;9.226;2023-07-20T10:09:56;163636.03;;;33.30;30.98
7940;BME280;4015;48.888;9.226;2023-07-20T10:12:25;163802.91;;;33.96;31.85
7940;BME280;4015;48.888;9.226;2023-07-20T10:17:34;164484.81;;;36.64;28.34
7940;BME280;4015;48.888;9.226;2023-07-20T10:20:01;164680.38;;;37.41;29.37
7940;BME280;4015;48.888;9.226;2023-07-20T10:22:31;163934.81;;;34.48;30.90
7940;BME280;4015;48.888;9.226;2023-07-20T10:24:59;164214.31;;;35.58;30.69
7940;BME280;4015;48.888;9.226;2023-07-20T10:27:26;163724.00;;;33.65;31.34
7940;BME280;4015;48.888;9.226;2023-07-20T10:29:52;163908.91;;;34.38;30.26
7940;BME280;4015;48.888;9.226;2023-07-20T10:32:20;163689.09;;;33.51;30.47
7940;BME280;4015;48.888;9.226;2023-07-20T10:34:52;163757.59;;;33.78;31.46
7940;BME280;4015;48.888;9.226;2023-07-20T10:37:46;163511.91;;;32.81;31.92
7940;BME280;4015;48.888;9.226;2023-07-20T10:40:38;163452.50;;;32.58;32.27
7940;BME280;4015;48.888;9.226;2023-07-20T10:43:08;163408.53;;;32.40;33.22
7940;BME280;4015;48.888;9.226;2023-07-20T10:45:39;163597.28;;;33.15;32.19
7940;BME280;4015;48.888;9.226;2023-07-20T10:48:05;163513.22;;;32.82;32.75
7940;BME280;4015;48.888;9.226;2023-07-20T10:50:35;163081.63;;;31.11;33.81
7940;BME280;4015;48.888;9.226;2023-07-20T10:53:05;163275.44;;;31.88;32.79
7940;BME280;4015;48.888;9.226;2023-07-20T10:55:34;163511.91;;;32.81;32.49
7940;BME280;4015;48.888;9.226;2023-07-20T10:58:20;164109.47;;;35.17;30.69
7940;BME280;4015;48.888;9.226;2023-07-20T11:00:56;164048.69;;;34.93;30.54
7940;BME280;4015;48.888;9.226;2023-07-20T11:03:30;163937.41;;;34.49;28.84
7940;BME280;4015;48.888;9.226;2023-07-20T11:05:57;163950.34;;;34.54;28.75
7940;BME280;4015;48.888;9.226;2023-07-20T11:08:42;164435.63;;;36.45;27.63
7940;BME280;4015;48.888;9.226;2023-07-20T11:14:09;164585.81;;;37.04;27.65
7940;BME280;4015;48.888;9.226;2023-07-20T11:19:05;164980.81;;;38.59;28.63
7940;BME280;4015;48.888;9.226;2023-07-20T11:21:41;164466.69;;;36.57;27.42
7940;BME280;4015;48.888;9.226;2023-07-20T11:24:07;164174.19;;;35.42;28.82
7940;BME280;4015;48.888;9.226;2023-07-20T11:26:42;164465.41;;;36.57;29.37
7940;BME280;4015;48.888;9.226;2023-07-20T11:29:07;164706.22;;;37.51;27.56
7940;BME280;4015;48.888;9.226;2023-07-20T11:31:41;164427.88;;;36.42;27.23
7940;BME280;4015;48.888;9.226;2023-07-20T11:34:11;164514.56;;;36.76;26.72
7940;BME280;4015;48.888;9.226;2023-07-20T11:36:39;164446.00;;;36.49;27.27
7940;BME280;4015;48.888;9.226;2023-07-20T11:39:07;164238.88;;;35.67;27.20
7940;BME280;4015;48.888;9.226;2023-07-20T11:41:34;164675.16;;;37.39;26.46
7940;BME280;4015;48.888;9.226;2023-07-20T11:43:59;164733.44;;;37.62;25.77
7940;BME280;4015;48.888;9.226;2023-07-20T11:46:27;164470.59;;;36.59;26.41
7940;BME280;4015;48.888;9.226;2023-07-20T11:48:57;164711.44;;;37.53;26.75
7940;BME280;4015;48.888;9.226;2023-07-20T11:51:25;164768.38;;;37.76;25.32
7940;BME280;4015;48.888;9.226;2023-07-20T11:53:51;164809.88;;;37.92;25.56
7940;BME280;4015;48.888;9.226;2023-07-20T11:56:16;165043.03;;;38.84;25.60
7940;BME280;4015;48.888;9.226;2023-07-20T11:58:44;164680.38;;;37.41;26.18
7940;BME280;4015;48.888;9.226;2023-07-20T12:01:09;164840.94;;;38.04;24.92
7940;BME280;4015;48.888;9.226;2023-07-20T12:03:36;164940.69;;;38.44;25.23
7940;BME280;4015;48.888;9.226;2023-07-20T12:06:13;165119.44;;;39.14;25.26
7940;BME280;4015;48.888;9.226;2023-07-20T12:08:40;165027.47;;;38.78;26.55
7940;BME280;4015;48.888;9.226;2023-07-20T12:11:07;165172.59;;;39.35;25.86
7940;BME280;4015;48.888;9.226;2023-07-20T12:16:13;165036.56;;;38.81;26.24
7940;BME280;4015;48.888;9.226;2023-07-20T12:18:40;164545.69;;;36.88;25.61
7940;BME280;4015;48.888;9.226;2023-07-20T12:21:06;164916.06;;;38.34;26.11
7940;BME280;4015;48.888;9.226;2023-07-20T12:23:40;164935.53;;;38.42;26.14
7940;BME280;4015;48.888;9.226;2023-07-20T12:26:09;164531.41;;;36.83;26.03
7940;BME280;4015;48.888;9.226;2023-07-20T12:28:39;164813.75;;;37.94;26.29
7940;BME280;4015;48.888;9.226;2023-07-20T12:31:06;164996.34;;;38.66;25.63
7940;BME280;4015;48.888;9.226;2023-07-20T12:33:32;165137.63;;;39.21;24.56
7940;BME280;4015;48.888;9.226;2023-07-20T12:35:57;164938.09;;;38.43;25.04
7940;BME280;4015;48.888;9.226;2023-07-20T12:38:25;164637.59;;;37.24;25.73
7940;BME280;4015;48.888;9.226;2023-07-20T12:40:52;164961.41;;;38.52;25.65
7940;BME280;4015;48.888;9.226;2023-07-20T12:43:19;165024.91;;;38.77;24.66
7940;BME280;4015;48.888;9.226;2023-07-20T12:45:45;165207.59;;;39.49;24.90
7940;BME280;4015;48.888;9.226;2023-07-20T12:48:10;165315.13;;;39.91;24.79
7940;BME280;4015;48.888;9.226;2023-07-20T12:50:35;165258.16;;;39.69;23.81
7940;BME280;4015;48.888;9.226;2023-07-20T12:53:01;165579.63;;;40.95;23.57
7940;BME280;4015;48.888;9.226;2023-07-20T12:55:29;165544.59;;;40.81;23.55
7940;BME280;4015;48.888;9.226;2023-07-20T12:57:54;165171.31;;;39.34;24.36
7940;BME280;4015;48.888;9.226;2023-07-20T13:00:20;165242.63;;;39.62;24.79
7940;BME280;4015;48.888;9.226;2023-07-20T13:02:47;165022.31;;;38.76;24.74
7940;BME280;4015;48.888;9.226;2023-07-20T13:05:12;164738.59;;;37.64;26.76
7940;BME280;4015;48.888;9.226;2023-07-20T13:07:38;164822.84;;;37.97;27.25
7940;BME280;4015;48.888;9.226;2023-07-20T13:10:05;165245.19;;;39.63;24.91
7940;BME280;4015;48.888;9.226;2023-07-20T13:12:32;165398.16;;;40.24;24.47
7940;BME280;4015;48.888;9.226;2023-07-20T13:14:58;165477.22;;;40.55;24.24
7940;BME280;4015;48.888;9.226;2023-07-20T13:17:28;165364.41;;;40.10;24.65
7940;BME280;4015;48.888;9.226;2023-07-20T13:19:54;165149.28;;;39.26;23.86
7940;BME280;4015;48.888;9.226;2023-07-20T13:22:20;165052.13;;;38.88;24.66